Time;durP1;ratioP1;P1;durP2;ratioP2;P2;SDS_P1;SDS_P2;PMS_P1;PMS_P2;Temp;Humidity;BMP_temperature;BMP_pressure;BME280_temperature;BME280_humidity;BME280_pressure;Samples;Min_cycle;Max_cycle;Signal;HPM_P1;HPM_P2
2022/08/16 00:01:09;;;;;;;16.95;15.18;;;22.90;99.90;;;;;;5058224;28;20224;-87
2022/08/16 00:03:59;;;;;;;19.25;15.32;;;22.90;99.90;;;;;;5064018;28;20220;-88
2022/08/16 00:06:48;;;;;;;16.60;14.85;;;22.90;99.90;;;;;;5059070;28;20215;-88
2022/08/16 00:09:37;;;;;;;18.25;15.25;;;23.00;99.90;;;;;;5041825;28;20236;-89
2022/08/16 00:12:30;;;;;;;17.90;16.00;;;22.90;99.90;;;;;;5043455;28;20216;-87
2022/08/16 00:15:23;;;;;;;20.00;15.65;;;22.80;99.90;;;;;;5052292;28;20218;-86
2022/08/16 00:18:33;;;;;;;21.77;15.75;;;22.80;99.90;;;;;;5056682;28;20208;-85
2022/08/16 00:21:24;;;;;;;18.92;15.85;;;22.80;99.90;;;;;;5058722;28;20216;-89
2022/08/16 00:24:16;;;;;;;20.40;15.60;;;22.80;99.90;;;;;;5061314;28;20219;-88
2022/08/16 00:27:20;;;;;;;17.23;15.40;;;22.90;99.90;;;;;;5058120;28;20204;-88
2022/08/16 00:30:13;;;;;;;18.65;16.52;;;22.90;99.90;;;;;;5046695;28;20281;-89
2022/08/16 00:33:16;;;;;;;16.60;14.90;;;22.90;99.90;;;;;;5053346;28;20324;-85
2022/08/16 00:36:08;;;;;;;21.05;15.52;;;22.90;99.90;;;;;;5048658;28;20215;-84
2022/08/16 00:38:57;;;;;;;19.38;15.40;;;22.90;99.90;;;;;;5047317;28;20669;-88
2022/08/16 00:41:49;;;;;;;17.17;15.38;;;22.90;99.90;;;;;;5056584;28;20219;-88
2022/08/16 00:44:41;;;;;;;18.33;15.85;;;22.90;99.90;;;;;;5071775;28;20218;-87
2022/08/16 00:47:30;;;;;;;19.25;15.65;;;22.90;99.90;;;;;;5060574;28;20224;-91
2022/08/16 00:50:22;;;;;;;19.00;15.93;;;22.90;99.90;;;;;;5049154;28;20220;-90
2022/08/16 00:53:25;;;;;;;17.65;15.77;;;22.90;99.90;;;;;;5064087;28;20813;-90
2022/08/16 00:56:22;;;;;;;16.40;14.70;;;22.80;99.90;;;;;;5050297;28;20243;-90
2022/08/16 00:59:34;;;;;;;16.50;14.80;;;22.80;99.90;;;;;;5045199;28;20235;-90
2022/08/16 01:02:23;;;;;;;16.67;15.05;;;22.80;99.90;;;;;;5052791;28;20349;-90
2022/08/16 01:05:20;;;;;;;19.27;15.48;;;22.70;99.90;;;;;;5065443;28;20361;-89
2022/08/16 01:08:14;;;;;;;16.63;14.90;;;22.80;99.90;;;;;;5057060;28;20216;-89
2022/08/16 01:11:25;;;;;;;18.35;14.55;;;22.80;99.90;;;;;;5069067;28;20224;-91
2022/08/16 01:14:23;;;;;;;16.20;14.63;;;22.80;99.90;;;;;;5053720;28;20224;-91
2022/08/16 01:17:19;;;;;;;16.95;13.98;;;22.80;99.90;;;;;;5063896;28;20317;-88
2022/08/16 01:20:13;;;;;;;16.40;13.82;;;22.80;99.90;;;;;;5049269;28;20220;-85
2022/08/16 01:23:17;;;;;;;15.65;13.85;;;22.80;99.90;;;;;;5042895;28;20657;-85
2022/08/16 01:26:07;;;;;;;17.98;14.65;;;22.80;99.90;;;;;;5065473;28;20372;-86
2022/08/16 01:29:24;;;;;;;15.38;13.70;;;22.80;99.90;;;;;;5066096;28;20244;-85
2022/08/16 01:32:37;;;;;;;18.25;15.00;;;22.80;99.90;;;;;;5064646;28;20364;-89
2022/08/16 01:35:31;;;;;;;16.23;14.55;;;22.70;99.90;;;;;;5073255;28;20243;-86
2022/08/16 01:38:30;;;;;;;16.25;14.32;;;22.60;99.90;;;;;;5053404;28;20232;-86
2022/08/16 01:41:28;;;;;;;15.40;13.90;;;22.70;99.90;;;;;;5044849;28;20220;-85
2022/08/16 01:44:18;;;;;;;16.05;14.43;;;22.70;99.90;;;;;;5063509;28;20235;-86
2022/08/16 01:47:08;;;;;;;15.35;13.95;;;22.70;99.90;;;;;;5046352;28;20235;-87
2022/08/16 01:49:57;;;;;;;16.42;14.90;;;22.70;99.90;;;;;;5046377;28;20228;-86
2022/08/16 01:53:06;;;;;;;18.73;14.43;;;22.80;99.90;;;;;;5063792;28;20596;-88
2022/08/16 01:56:26;;;;;;;18.63;15.25;;;22.80;99.90;;;;;;5059232;28;20224;-86
2022/08/16 01:59:16;;;;;;;15.27;13.73;;;22.70;99.90;;;;;;5047531;28;20247;-88
2022/08/16 02:02:06;;;;;;;15.90;13.52;;;22.70;99.90;;;;;;5056348;28;20243;-92
2022/08/16 02:05:14;;;;;;;17.40;14.50;;;22.70;99.90;;;;;;5064515;28;20248;-84
2022/08/16 02:08:04;;;;;;;15.43;13.93;;;22.70;99.90;;;;;;5044453;28;20261;-85
2022/08/16 02:10:54;;;;;;;15.20;13.65;;;22.70;99.90;;;;;;5047044;28;20232;-85
2022/08/16 02:13:45;;;;;;;16.05;14.38;;;22.70;99.90;;;;;;5040557;28;20364;-85
2022/08/16 02:16:43;;;;;;;16.95;13.48;;;22.80;99.90;;;;;;5040863;28;20309;-84
2022/08/16 02:19:36;;;;;;;15.00;13.40;;;22.60;99.90;;;;;;5044419;28;20507;-84
2022/08/16 02:22:45;;;;;;;16.30;14.35;;;22.60;99.90;;;;;;5058232;28;20223;-84
2022/08/16 02:25:35;;;;;;;16.10;14.40;;;22.60;99.90;;;;;;5043857;28;20212;-84
2022/08/16 02:28:42;;;;;;;15.73;14.07;;;22.50;99.90;;;;;;5056512;28;20220;-84
2022/08/16 02:31:37;;;;;;;14.98;13.32;;;22.50;99.90;;;;;;5046026;28;20231;-84
2022/08/16 02:34:46;;;;;;;15.57;13.88;;;22.50;99.90;;;;;;5049988;28;20227;-84
2022/08/16 02:37:38;;;;;;;15.32;13.73;;;22.50;99.90;;;;;;5047433;28;20228;-80
2022/08/16 02:40:41;;;;;;;15.35;13.68;;;22.50;99.90;;;;;;5049617;28;20211;-82
2022/08/16 02:43:32;;;;;;;15.52;13.88;;;22.60;99.90;;;;;;5070018;28;20302;-86
2022/08/16 02:46:25;;;;;;;15.50;13.30;;;22.60;99.90;;;;;;5045838;28;20228;-86
2022/08/16 02:49:23;;;;;;;15.05;13.38;;;22.50;99.90;;;;;;5048205;28;20258;-85
2022/08/16 02:52:33;;;;;;;13.95;12.40;;;22.50;99.90;;;;;;5051114;28;20473;-85
2022/08/16 02:55:26;;;;;;;16.05;14.18;;;22.50;99.90;;;;;;5044857;28;20232;-85
2022/08/16 02:58:32;;;;;;;16.27;14.43;;;22.50;99.90;;;;;;5046322;28;20307;-87
2022/08/16 03:01:26;;;;;;;18.50;15.68;;;22.50;99.90;;;;;;5065951;28;20224;-86
2022/08/16 03:04:28;;;;;;;17.60;15.55;;;22.40;99.90;;;;;;5063855;28;20629;-86
2022/08/16 03:07:37;;;;;;;15.57;13.80;;;22.40;99.90;;;;;;5047739;28;20259;-88
2022/08/16 03:10:38;;;;;;;17.48;13.90;;;22.40;99.90;;;;;;5046492;28;20239;-88
2022/08/16 03:13:27;;;;;;;15.52;13.38;;;22.30;99.90;;;;;;5062967;28;20243;-88
2022/08/16 03:16:17;;;;;;;14.98;13.48;;;22.40;99.90;;;;;;5050074;28;20220;-87
2022/08/16 03:19:28;;;;;;;16.00;13.77;;;22.40;99.90;;;;;;5058441;28;20688;-89
2022/08/16 03:22:39;;;;;;;14.65;13.25;;;22.30;99.90;;;;;;5049841;28;20254;-87
2022/08/16 03:25:35;;;;;;;15.63;14.05;;;22.30;99.90;;;;;;5053170;28;20229;-86
2022/08/16 03:28:32;;;;;;;16.42;14.70;;;22.40;99.90;;;;;;5044651;28;20216;-88
2022/08/16 03:31:21;;;;;;;17.17;14.63;;;22.30;99.90;;;;;;5046511;28;20300;-88
2022/08/16 03:34:10;;;;;;;18.52;14.45;;;22.10;99.90;;;;;;5061891;28;20523;-88
2022/08/16 03:37:02;;;;;;;16.58;14.98;;;22.20;99.90;;;;;;5058570;28;20216;-89
2022/08/16 03:39:54;;;;;;;18.40;15.35;;;22.20;99.90;;;;;;5045808;28;20359;-87
2022/08/16 03:42:43;;;;;;;18.02;16.23;;;22.10;99.90;;;;;;5057691;28;20220;-85
2022/08/16 03:45:54;;;;;;;19.13;16.10;;;22.20;99.90;;;;;;5044437;28;20601;-86
2022/08/16 03:48:46;;;;;;;20.92;17.17;;;22.10;99.90;;;;;;5056910;28;20223;-85
2022/08/16 03:51:40;;;;;;;21.88;16.60;;;22.20;99.90;;;;;;5045986;28;20242;-85
2022/08/16 03:54:32;;;;;;;16.98;15.38;;;22.20;99.90;;;;;;5049370;28;20281;-85
2022/08/16 03:57:23;;;;;;;16.73;15.07;;;22.20;99.90;;;;;;5061465;28;20605;-85
2022/08/16 04:00:26;;;;;;;16.98;15.27;;;22.10;99.90;;;;;;5051165;28;20220;-87
2022/08/16 04:03:31;;;;;;;15.50;14.02;;;22.20;99.90;;;;;;5043605;28;20272;-85
2022/08/16 04:06:23;;;;;;;17.23;14.48;;;22.20;99.90;;;;;;5041132;28;20561;-87
2022/08/16 04:09:12;;;;;;;18.95;14.25;;;22.20;99.90;;;;;;5045684;28;20543;-86
2022/08/16 04:12:03;;;;;;;18.05;14.80;;;22.10;99.90;;;;;;5043976;28;20223;-85
2022/08/16 04:15:15;;;;;;;16.83;14.25;;;22.30;99.90;;;;;;5048989;28;20211;-87
2022/08/16 04:18:19;;;;;;;15.48;13.82;;;22.20;99.90;;;;;;5046522;28;20219;-91
2022/08/16 04:21:10;;;;;;;17.60;14.57;;;22.10;99.90;;;;;;5070498;28;20284;-92
2022/08/16 04:23:59;;;;;;;17.60;14.55;;;22.00;99.90;;;;;;5068446;28;20224;-89
2022/08/16 04:26:48;;;;;;;16.05;13.70;;;22.10;99.90;;;;;;5049970;28;20236;-91
2022/08/16 04:29:39;;;;;;;16.50;14.80;;;22.20;99.90;;;;;;5047154;28;20948;-89
2022/08/16 04:32:35;;;;;;;16.30;14.57;;;22.10;99.90;;;;;;5045828;28;20229;-89
2022/08/16 04:35:26;;;;;;;17.50;13.48;;;22.20;99.90;;;;;;5046920;28;20224;-87
2022/08/16 04:38:21;;;;;;;16.73;14.27;;;22.10;99.90;;;;;;5045961;28;20228;-88
2022/08/16 04:41:13;;;;;;;15.82;13.63;;;22.10;99.90;;;;;;5060607;28;20238;-89
2022/08/16 04:44:02;;;;;;;17.45;13.40;;;22.10;99.90;;;;;;5056672;28;20816;-89
2022/08/16 04:47:15;;;;;;;16.52;14.13;;;22.20;99.90;;;;;;5053063;28;20224;-88
2022/08/16 04:50:16;;;;;;;15.13;13.40;;;22.10;99.90;;;;;;5057064;28;20230;-89
2022/08/16 04:53:24;;;;;;;16.98;14.07;;;22.20;99.90;;;;;;5075961;28;20262;-89
2022/08/16 04:56:14;;;;;;;17.08;13.95;;;22.30;99.90;;;;;;5052519;28;20314;-88
2022/08/16 04:59:07;;;;;;;17.35;13.27;;;22.40;99.90;;;;;;5062646;28;20836;-84
2022/08/16 05:01:56;;;;;;;18.13;14.25;;;22.50;99.90;;;;;;5047379;28;20301;-85
2022/08/16 05:04:49;;;;;;;15.73;14.23;;;22.50;99.90;;;;;;5060370;28;20233;-91
2022/08/16 05:07:39;;;;;;;17.02;13.98;;;22.50;99.90;;;;;;5052982;28;20247;-91
2022/08/16 05:10:49;;;;;;;18.55;13.95;;;22.70;99.90;;;;;;5072448;28;20220;-90
2022/08/16 05:13:40;;;;;;;17.30;14.05;;;22.60;99.90;;;;;;5065448;28;20228;-86
2022/08/16 05:16:35;;;;;;;20.55;14.93;;;22.60;99.90;;;;;;5064359;28;20812;-84
2022/08/16 05:19:28;;;;;;;20.52;14.68;;;22.50;99.90;;;;;;5047639;28;20208;-88
2022/08/16 05:22:38;;;;;;;15.70;14.05;;;22.50;99.90;;;;;;5044528;28;20991;-84
2022/08/16 05:25:34;;;;;;;15.85;13.32;;;22.60;99.90;;;;;;5041913;28;20374;-85
2022/08/16 05:28:36;;;;;;;15.13;13.60;;;22.60;99.90;;;;;;5058107;28;20255;-80
2022/08/16 05:31:29;;;;;;;17.73;13.70;;;22.60;99.90;;;;;;5045458;28;20224;-84
2022/08/16 05:34:20;;;;;;;16.30;13.73;;;22.80;99.90;;;;;;5059520;28;20223;-84
2022/08/16 05:37:13;;;;;;;14.98;13.45;;;22.80;99.90;;;;;;5058975;28;20253;-84
2022/08/16 05:40:08;;;;;;;16.92;13.48;;;22.80;99.90;;;;;;5059701;28;20227;-85
2022/08/16 05:43:01;;;;;;;17.83;13.80;;;22.80;99.90;;;;;;5043425;28;20752;-85
2022/08/16 05:45:52;;;;;;;15.95;14.25;;;22.80;99.90;;;;;;5044861;28;20262;-85
2022/08/16 05:48:42;;;;;;;16.85;14.25;;;22.70;99.90;;;;;;5044687;28;20224;-85
2022/08/16 05:51:43;;;;;;;15.55;13.43;;;22.60;99.90;;;;;;5046345;28;20581;-83
2022/08/16 05:54:36;;;;;;;16.42;14.13;;;22.60;99.90;;;;;;5058989;28;20220;-84
2022/08/16 05:57:35;;;;;;;18.48;14.48;;;22.70;99.90;;;;;;5061642;28;20277;-79
2022/08/16 06:00:23;;;;;;;18.80;14.18;;;22.80;99.90;;;;;;5045832;28;20252;-77
2022/08/16 06:03:15;;;;;;;17.30;13.85;;;22.60;99.90;;;;;;5057337;28;20831;-81
2022/08/16 06:06:25;;;;;;;15.75;14.07;;;22.70;99.90;;;;;;5056116;28;20365;-84
2022/08/16 06:09:17;;;;;;;17.50;14.50;;;22.80;99.90;;;;;;5043027;28;20251;-82
2022/08/16 06:12:07;;;;;;;18.55;14.40;;;22.80;99.90;;;;;;5060913;28;20227;-82
2022/08/16 06:15:00;;;;;;;15.60;13.40;;;22.80;99.90;;;;;;5045139;28;20306;-82
2022/08/16 06:17:52;;;;;;;26.30;14.52;;;22.90;99.90;;;;;;5044444;28;20216;-84
2022/08/16 06:20:46;;;;;;;15.60;14.00;;;22.90;99.90;;;;;;5058371;28;20235;-82
2022/08/16 06:23:46;;;;;;;15.60;13.98;;;23.10;99.90;;;;;;5047847;28;20271;-84
2022/08/16 06:26:42;;;;;;;16.35;14.05;;;23.20;99.90;;;;;;5043398;28;20220;-84
2022/08/16 06:29:47;;;;;;;15.07;13.48;;;23.20;99.90;;;;;;5043727;28;21105;-84
2022/08/16 06:32:41;;;;;;;16.13;14.25;;;23.40;99.90;;;;;;5053924;28;20230;-83
2022/08/16 06:35:36;;;;;;;14.93;13.23;;;23.40;99.90;;;;;;5052375;28;20458;-83
2022/08/16 06:38:29;;;;;;;15.82;12.77;;;23.40;99.90;;;;;;5060671;28;20228;-83
2022/08/16 06:41:27;;;;;;;17.52;13.35;;;23.50;99.90;;;;;;5058936;28;20779;-82
2022/08/16 06:44:30;;;;;;;14.93;13.38;;;23.40;99.90;;;;;;5044912;28;20377;-82
2022/08/16 06:47:22;;;;;;;16.73;14.30;;;23.50;99.90;;;;;;5057864;28;20211;-81
2022/08/16 06:50:34;;;;;;;19.30;13.50;;;23.50;99.90;;;;;;5045872;28;20697;-82
2022/08/16 06:53:26;;;;;;;21.13;13.95;;;23.60;99.90;;;;;;5047419;28;20216;-84
2022/08/16 06:56:20;;;;;;;16.95;13.68;;;23.70;99.90;;;;;;5041554;28;20289;-84
2022/08/16 06:59:40;;;;;;;17.05;13.80;;;23.80;99.90;;;;;;5061606;28;20227;-87
2022/08/16 07:02:47;;;;;;;15.35;13.63;;;23.90;99.90;;;;;;5044538;28;20282;-88
2022/08/16 07:05:41;;;;;;;22.23;13.60;;;23.80;99.90;;;;;;5038868;28;20222;-85
2022/08/16 07:08:42;;;;;;;18.45;13.57;;;24.10;99.90;;;;;;5038576;28;20220;-86
2022/08/16 07:11:31;;;;;;;14.55;13.05;;;24.40;99.90;;;;;;5040659;28;20220;-88
2022/08/16 07:14:38;;;;;;;19.98;13.48;;;24.60;99.90;;;;;;5045412;28;20775;-90
2022/08/16 07:17:28;;;;;;;16.80;13.00;;;25.10;99.90;;;;;;5047421;28;20282;-88
2022/08/16 07:20:21;;;;;;;14.68;13.02;;;25.40;99.90;;;;;;5044416;28;20231;-86
2022/08/16 07:23:25;;;;;;;16.30;12.40;;;25.70;99.90;;;;;;5041430;28;20600;-85
2022/08/16 07:26:28;;;;;;;18.35;12.73;;;25.80;99.90;;;;;;5051190;28;20223;-88
2022/08/16 07:29:18;;;;;;;18.42;13.00;;;25.70;99.90;;;;;;5039233;28;20659;-88
2022/08/16 07:32:10;;;;;;;17.08;12.38;;;26.00;99.90;;;;;;5044855;28;20229;-83
2022/08/16 07:35:00;;;;;;;19.23;13.55;;;25.80;99.90;;;;;;5054065;28;20969;-84
2022/08/16 07:37:49;;;;;;;15.73;12.20;;;26.10;99.90;;;;;;5042472;28;20390;-87
2022/08/16 07:40:48;;;;;;;14.20;12.15;;;26.10;99.90;;;;;;5043877;28;20285;-90
2022/08/16 07:43:49;;;;;;;15.50;13.70;;;26.30;99.90;;;;;;5058448;28;20220;-86
2022/08/16 07:46:39;;;;;;;16.83;13.13;;;26.60;99.90;;;;;;5058891;28;20231;-87
2022/08/16 07:49:40;;;;;;;20.08;12.55;;;26.60;99.90;;;;;;5053809;28;20262;-85
2022/08/16 07:52:47;;;;;;;15.13;13.00;;;26.70;99.90;;;;;;5039243;28;20327;-83
2022/08/16 07:55:40;;;;;;;15.73;12.95;;;26.40;99.90;;;;;;5040261;28;20258;-87
2022/08/16 07:58:41;;;;;;;14.98;11.63;;;26.50;99.90;;;;;;5054026;28;20877;-86
2022/08/16 08:01:37;;;;;;;18.27;11.90;;;26.50;99.90;;;;;;5037740;28;20227;-84
2022/08/16 08:04:26;;;;;;;12.50;11.23;;;26.70;99.90;;;;;;5038394;28;20217;-85
2022/08/16 08:07:21;;;;;;;14.98;11.82;;;27.00;99.90;;;;;;5035596;28;20778;-81
2022/08/16 08:10:18;;;;;;;13.98;11.50;;;27.10;99.90;;;;;;5055770;28;20232;-84
2022/08/16 08:13:20;;;;;;;12.90;11.55;;;27.20;99.90;;;;;;5038674;28;20231;-86
2022/08/16 08:16:31;;;;;;;14.00;11.48;;;27.30;99.90;;;;;;5042360;28;20925;-85
2022/08/16 08:19:21;;;;;;;11.52;10.32;;;27.20;99.90;;;;;;5041186;28;20220;-84
2022/08/16 08:22:14;;;;;;;15.10;12.00;;;27.00;99.90;;;;;;5040458;28;20239;-86
2022/08/16 08:25:14;;;;;;;16.23;12.38;;;26.90;99.90;;;;;;5041440;28;20920;-86
2022/08/16 08:28:04;;;;;;;15.48;12.10;;;26.70;99.90;;;;;;5040494;28;20281;-85
2022/08/16 08:31:02;;;;;;;14.80;11.68;;;26.60;99.90;;;;;;5055240;28;20224;-86
2022/08/16 08:33:58;;;;;;;16.02;12.25;;;26.60;99.90;;;;;;5045581;28;20574;-86
2022/08/16 08:36:48;;;;;;;18.55;11.93;;;26.60;99.90;;;;;;5061487;28;20220;-85
2022/08/16 08:39:52;;;;;;;17.20;12.68;;;26.50;99.90;;;;;;5061503;28;20231;-81
2022/08/16 08:42:44;;;;;;;17.33;12.82;;;26.60;99.90;;;;;;5055902;28;20231;-83
2022/08/16 08:45:37;;;;;;;15.00;11.98;;;26.70;99.90;;;;;;5057367;28;20224;-83
2022/08/16 08:48:37;;;;;;;13.73;12.07;;;26.70;99.90;;;;;;5045848;28;20855;-84
2022/08/16 08:51:37;;;;;;;14.27;11.73;;;26.70;99.90;;;;;;5038647;28;20862;-86
2022/08/16 08:54:33;;;;;;;17.48;12.23;;;26.70;99.90;;;;;;5052341;28;20224;-87
2022/08/16 08:57:25;;;;;;;15.13;11.27;;;27.00;99.90;;;;;;5038022;28;20220;-84
2022/08/16 09:00:36;;;;;;;15.88;14.02;;;27.70;99.90;;;;;;5053535;28;20282;-82
2022/08/16 09:03:40;;;;;;;16.17;11.57;;;28.30;99.90;;;;;;5052739;28;20224;-87
2022/08/16 09:06:31;;;;;;;16.00;11.65;;;29.00;99.90;;;;;;5056004;28;20297;-85
2022/08/16 09:09:22;;;;;;;12.60;11.30;;;29.40;99.90;;;;;;5051866;28;20665;-82
2022/08/16 09:12:17;;;;;;;17.40;12.98;;;29.30;99.90;;;;;;5054063;28;20218;-90
2022/08/16 09:15:32;;;;;;;15.32;11.60;;;29.90;99.90;;;;;;5056869;28;20889;-86
2022/08/16 09:18:26;;;;;;;13.80;12.00;;;29.70;99.90;;;;;;5041518;28;20208;-85
2022/08/16 09:21:24;;;;;;;13.95;11.45;;;29.60;99.90;;;;;;5040982;28;20230;-86
2022/08/16 09:24:19;;;;;;;16.65;11.02;;;28.70;99.90;;;;;;5050159;28;20223;-81
2022/08/16 09:27:29;;;;;;;14.98;11.48;;;28.60;99.90;;;;;;5041114;28;20220;-85
2022/08/16 09:30:38;;;;;;;18.23;11.45;;;28.40;99.90;;;;;;5058531;28;20220;-85
2022/08/16 09:33:32;;;;;;;15.40;11.27;;;28.10;99.90;;;;;;5043072;28;20577;-85
2022/08/16 09:36:28;;;;;;;13.70;10.68;;;28.20;99.90;;;;;;5044626;28;20262;-86
2022/08/16 09:39:20;;;;;;;15.25;10.48;;;28.00;99.90;;;;;;5042121;28;20228;-83
2022/08/16 09:42:09;;;;;;;14.77;10.65;;;28.00;99.90;;;;;;5044397;28;20256;-81
2022/08/16 09:44:59;;;;;;;14.18;11.20;;;27.90;99.90;;;;;;5044178;28;20231;-82
2022/08/16 09:48:03;;;;;;;16.70;10.88;;;28.10;99.90;;;;;;5059390;28;20235;-84
2022/08/16 09:50:54;;;;;;;15.30;11.57;;;28.00;99.90;;;;;;5055765;28;20228;-83
2022/08/16 09:53:43;;;;;;;13.80;11.02;;;28.00;99.90;;;;;;5057752;28;21106;-85
2022/08/16 09:56:41;;;;;;;14.15;10.93;;;27.90;99.90;;;;;;5041844;28;20239;-84
2022/08/16 09:59:41;;;;;;;16.60;11.02;;;27.90;99.90;;;;;;5057170;28;20658;-87
2022/08/16 10:02:31;;;;;;;12.57;11.38;;;27.90;99.90;;;;;;5054406;28;20224;-85
2022/08/16 10:05:20;;;;;;;13.75;10.80;;;28.00;99.90;;;;;;5064319;28;20327;-89
2022/08/16 10:08:09;;;;;;;24.48;21.17;;;28.10;99.90;;;;;;5040854;28;21309;-86
2022/08/16 10:14:39;;;;;;;16.52;12.10;;;27.80;99.90;;;;;;5057247;28;20224;-87
2022/08/16 10:17:37;;;;;;;16.42;11.30;;;27.60;99.90;;;;;;5053826;28;20280;-89
2022/08/16 10:20:26;;;;;;;13.90;10.63;;;27.80;99.90;;;;;;5035581;28;20228;-87
2022/08/16 10:23:15;;;;;;;13.35;11.77;;;27.80;99.90;;;;;;5037620;28;20231;-83
2022/08/16 10:26:07;;;;;;;18.42;11.82;;;27.60;99.90;;;;;;5038148;28;20665;-86
2022/08/16 10:29:16;;;;;;;16.02;10.75;;;27.60;99.90;;;;;;5044475;28;20616;-83
2022/08/16 10:32:08;;;;;;;13.32;10.23;;;27.60;99.90;;;;;;5047592;28;20224;-84
2022/08/16 10:34:58;;;;;;;11.05;9.55;;;27.60;99.90;;;;;;5061668;28;20644;-86
2022/08/16 10:37:49;;;;;;;11.52;10.20;;;27.60;99.90;;;;;;5056047;28;20278;-86
2022/08/16 10:40:41;;;;;;;13.63;10.10;;;27.60;99.90;;;;;;5060087;28;20518;-83
2022/08/16 10:43:33;;;;;;;11.77;9.43;;;27.70;99.90;;;;;;5041671;28;20632;-85
2022/08/16 10:46:22;;;;;;;10.05;8.52;;;27.60;99.90;;;;;;5042098;28;20223;-85
2022/08/16 10:49:29;;;;;;;13.18;9.38;;;27.70;99.90;;;;;;5054882;28;20224;-87
2022/08/16 10:52:20;;;;;;;12.95;9.80;;;27.90;99.90;;;;;;5044299;28;20231;-85
2022/08/16 10:55:11;;;;;;;11.02;9.77;;;28.00;99.90;;;;;;5053562;28;20235;-84
2022/08/16 10:58:20;;;;;;;11.00;9.90;;;28.50;99.90;;;;;;5055037;28;20720;-86
2022/08/16 11:01:24;;;;;;;12.45;9.65;;;29.20;99.90;;;;;;5039189;28;20227;-80
2022/08/16 11:04:31;;;;;;;11.73;9.93;;;29.50;99.90;;;;;;5055341;28;20338;-83
2022/08/16 11:07:47;;;;;;;13.65;9.63;;;29.30;99.90;;;;;;5054470;28;20224;-82
2022/08/16 11:10:54;;;;;;;12.40;9.80;;;29.00;99.90;;;;;;5055538;28;20806;-79
2022/08/16 11:13:55;;;;;;;21.77;10.70;;;28.70;99.90;;;;;;5043911;28;20250;-82
2022/08/16 11:16:47;;;;;;;12.93;10.73;;;28.50;99.90;;;;;;5057542;28;20216;-81
2022/08/16 11:19:55;;;;;;;13.57;10.57;;;28.50;99.90;;;;;;5060723;28;20212;-80
2022/08/16 11:23:05;;;;;;;17.42;11.35;;;28.10;99.90;;;;;;5056355;28;20216;-80
2022/08/16 11:25:59;;;;;;;15.68;11.13;;;27.80;99.90;;;;;;5053970;28;20228;-80
2022/08/16 11:29:08;;;;;;;16.88;11.75;;;27.60;99.90;;;;;;5054857;28;20233;-79
2022/08/16 11:32:04;;;;;;;12.55;11.25;;;27.70;99.90;;;;;;5042648;28;20225;-80
2022/08/16 11:34:58;;;;;;;16.13;12.00;;;27.60;99.90;;;;;;5053813;28;20232;-83
2022/08/16 11:38:06;;;;;;;17.17;11.55;;;27.50;99.90;;;;;;5050886;28;20216;-82
2022/08/16 11:41:15;;;;;;;15.27;11.88;;;27.60;99.90;;;;;;5054181;28;20212;-87
2022/08/16 11:44:04;;;;;;;13.00;11.73;;;27.60;99.90;;;;;;5056038;28;20656;-83
2022/08/16 11:46:53;;;;;;;14.27;12.05;;;27.70;99.90;;;;;;5036939;28;20653;-82
2022/08/16 11:49:42;;;;;;;15.75;12.02;;;27.50;99.90;;;;;;5056598;28;20776;-82
2022/08/16 11:52:33;;;;;;;15.52;12.98;;;27.50;99.90;;;;;;5035011;28;20301;-82
2022/08/16 11:55:28;;;;;;;19.27;12.32;;;27.40;99.90;;;;;;5056587;28;20217;-82
2022/08/16 11:58:17;;;;;;;16.67;11.93;;;27.30;99.90;;;;;;5055580;28;20221;-82
2022/08/16 12:01:07;;;;;;;15.75;12.10;;;27.50;99.90;;;;;;5042091;28;20227;-83
2022/08/16 12:03:58;;;;;;;12.82;11.52;;;27.90;99.90;;;;;;5056629;28;20228;-81
2022/08/16 12:06:47;;;;;;;16.02;10.80;;;27.90;99.90;;;;;;5054983;28;20272;-82
2022/08/16 12:09:37;;;;;;;13.43;12.07;;;28.20;99.90;;;;;;5044762;28;20219;-81
2022/08/16 12:12:32;;;;;;;12.75;11.43;;;28.20;99.90;;;;;;5054404;28;20225;-80
2022/08/16 12:15:21;;;;;;;17.15;13.23;;;28.10;99.90;;;;;;5058583;28;20320;-80
2022/08/16 12:18:11;;;;;;;15.38;12.98;;;28.40;99.90;;;;;;5057034;28;20238;-82
2022/08/16 12:21:08;;;;;;;16.17;12.20;;;28.70;99.90;;;;;;5058164;28;20570;-81
2022/08/16 12:23:57;;;;;;;13.43;11.98;;;28.60;99.90;;;;;;5038806;28;20227;-82
2022/08/16 12:26:46;;;;;;;13.05;11.50;;;28.70;99.90;;;;;;5045410;28;20259;-82
2022/08/16 12:29:36;;;;;;;17.05;12.43;;;28.50;99.90;;;;;;5042604;28;20369;-83
2022/08/16 12:32:25;;;;;;;13.07;11.60;;;28.00;99.90;;;;;;5042409;28;20819;-83
2022/08/16 12:35:30;;;;;;;16.13;11.77;;;27.90;99.90;;;;;;5041971;28;20234;-82
2022/08/16 12:38:19;;;;;;;14.73;12.05;;;27.60;99.90;;;;;;5054339;28;20223;-82
2022/08/16 12:41:31;;;;;;;19.38;12.00;;;27.20;99.90;;;;;;5041435;28;20212;-82
2022/08/16 12:44:22;;;;;;;14.50;12.32;;;27.10;99.90;;;;;;5054994;28;20334;-81
2022/08/16 12:50:20;;;;;;;19.75;12.70;;;27.30;99.90;;;;;;5042019;28;20300;-81
2022/08/16 12:53:12;;;;;;;14.57;12.77;;;27.00;99.90;;;;;;5056414;28;20323;-83
2022/08/16 12:56:04;;;;;;;15.52;13.48;;;27.00;99.90;;;;;;5040389;28;20224;-81
2022/08/16 12:58:59;;;;;;;14.13;12.70;;;27.10;99.90;;;;;;5051241;28;20775;-81
2022/08/16 13:01:49;;;;;;;16.80;14.23;;;27.40;99.90;;;;;;5053474;28;20305;-82
2022/08/16 13:04:47;;;;;;;17.55;12.73;;;27.40;99.90;;;;;;5042173;28;20227;-83
2022/08/16 13:07:37;;;;;;;15.10;13.57;;;27.30;99.90;;;;;;5060849;28;20303;-81
2022/08/16 13:10:33;;;;;;;15.15;12.82;;;27.10;99.90;;;;;;5058396;28;20439;-81
2022/08/16 13:13:27;;;;;;;20.33;13.35;;;27.20;99.90;;;;;;5057780;28;20792;-80
2022/08/16 13:16:16;;;;;;;14.68;11.23;;;27.20;99.90;;;;;;5058518;28;20228;-80
2022/08/16 13:19:12;;;;;;;12.15;10.45;;;27.30;99.90;;;;;;5043197;28;20216;-78
2022/08/16 13:22:01;;;;;;;13.15;10.18;;;27.20;99.90;;;;;;5060114;28;20269;-79
2022/08/16 13:24:51;;;;;;;12.52;8.90;;;27.30;99.90;;;;;;5059997;28;20216;-79
2022/08/16 13:27:40;;;;;;;11.00;8.07;;;27.20;99.90;;;;;;5044156;28;20217;-81
2022/08/16 13:30:51;;;;;;;9.98;6.80;;;27.30;99.90;;;;;;5043252;28;20228;-81
2022/08/16 13:33:40;;;;;;;12.25;6.85;;;27.40;99.90;;;;;;5041373;28;20224;-81
2022/08/16 13:36:29;;;;;;;11.23;7.57;;;27.50;99.90;;;;;;5056873;28;20640;-83
2022/08/16 13:39:42;;;;;;;10.93;6.97;;;27.50;99.90;;;;;;5045991;28;20254;-81
2022/08/16 13:42:31;;;;;;;9.85;7.50;;;27.50;99.90;;;;;;5043537;28;20231;-82
2022/08/16 13:45:28;;;;;;;10.73;7.55;;;27.50;99.90;;;;;;5060374;28;20343;-83
2022/08/16 13:48:24;;;;;;;10.77;6.70;;;27.40;99.90;;;;;;5058380;28;20217;-83
2022/08/16 13:51:30;;;;;;;8.70;6.30;;;27.40;99.90;;;;;;5057242;28;20280;-82
2022/08/16 13:54:19;;;;;;;11.52;7.00;;;27.20;99.90;;;;;;5057542;28;20224;-84
2022/08/16 13:57:09;;;;;;;11.60;7.00;;;27.10;99.90;;;;;;5061521;28;20696;-82
2022/08/16 13:59:59;;;;;;;9.43;6.72;;;27.00;99.90;;;;;;5058633;28;20224;-84
2022/08/16 14:02:48;;;;;;;10.18;6.97;;;27.00;99.90;;;;;;5047881;28;20212;-80
2022/08/16 14:05:37;;;;;;;9.73;7.15;;;26.70;99.90;;;;;;5053390;28;20231;-86
2022/08/16 14:08:26;;;;;;;11.73;7.20;;;26.80;99.90;;;;;;5062833;28;20216;-80
2022/08/16 14:11:15;;;;;;;10.95;6.90;;;26.70;99.90;;;;;;5051450;28;20231;-85
2022/08/16 14:14:06;;;;;;;10.20;7.20;;;26.70;99.90;;;;;;5059623;28;20593;-86
2022/08/16 14:16:59;;;;;;;12.57;7.63;;;26.80;99.90;;;;;;5058538;28;20282;-81
2022/08/16 14:19:49;;;;;;;11.63;6.82;;;26.70;99.90;;;;;;5061690;28;20240;-82
2022/08/16 14:22:41;;;;;;;11.55;7.28;;;26.70;99.90;;;;;;5061858;28;20224;-80
2022/08/16 14:25:38;;;;;;;10.98;8.20;;;26.70;99.90;;;;;;5039764;28;20700;-82
2022/08/16 14:28:28;;;;;;;12.60;8.63;;;26.60;99.90;;;;;;5045757;28;20306;-84
2022/08/16 14:31:19;;;;;;;13.40;8.43;;;26.50;99.90;;;;;;5045759;28;20648;-83
2022/08/16 14:34:07;;;;;;;12.20;8.68;;;26.50;99.90;;;;;;5056531;28;20724;-85
2022/08/16 14:36:58;;;;;;;9.05;8.10;;;26.50;99.90;;;;;;5061739;28;20322;-83
2022/08/16 14:39:47;;;;;;;11.68;8.35;;;26.50;99.90;;;;;;5058638;28;20220;-82
2022/08/16 14:42:37;;;;;;;10.10;7.53;;;26.50;99.90;;;;;;5041646;28;20242;-81
2022/08/16 14:45:28;;;;;;;10.85;7.85;;;26.60;99.90;;;;;;5054108;28;20235;-83
2022/08/16 14:48:19;;;;;;;9.50;8.07;;;26.60;99.90;;;;;;5040557;28;20225;-81
2022/08/16 14:51:14;;;;;;;10.80;8.30;;;26.50;99.90;;;;;;5059609;28;20229;-82
2022/08/16 14:54:04;;;;;;;13.60;8.25;;;26.60;99.90;;;;;;5042968;28;20248;-81
2022/08/16 14:56:58;;;;;;;14.18;8.50;;;26.60;99.90;;;;;;5039112;28;20228;-81
2022/08/16 14:59:47;;;;;;;9.52;8.18;;;26.60;99.90;;;;;;5054977;28;20232;-81